Terminal Aerodrome Forecast
Issued by NWS

Home | Current Version | Previous Version | Text Only | Print | Product List | Glossary On
Versions: 1 2 3 4 5 6 7 8 9 10 11 12 13 14 15 16 17 18 19 20 21 22
000
FTUS42 KMLB 181700
TAFSUA
TAF
KSUA 181737Z 1818/1918 14015G22KT P6SM VCSH SCT020 BKN035
     FM182100 14010KT P6SM SHRA VCTS SCT020 BKN040CB OVC060
     FM190500 16011KT P6SM VCSH BKN030 OVC050
     FM191400 24014KT P6SM VCSH SCT015 OVC040=

USA.gov is the U.S. government's official web portal to all federal, state and local government web resources and services.